This is the latest recevied weather packets stored in our database for station/object WX5HOT. If no packets are shown the sender has not sent any weather packets the latest 10 day(s).
| Time | Temp. | Humidity | Pressure | Rain* | Wind** | Luminosity | Snow |
|---|---|---|---|---|---|---|---|
| 1777381677 | 20.56° C | 99% | 1065.7 hPa | 0 mm | - | 39 W/m² | - |
| 1777381373 | 20.56° C | 99% | 1065.4 hPa | 0 mm | - | 25 W/m² | - |
| 1777381070 | 20.56° C | 99% | 1065.5 hPa | 0 mm | - | 34 W/m² | - |
| 1777380766 | 20.56° C | 99% | 1065.4 hPa | 0 mm | - | 23 W/m² | - |
| 1777380463 | 20.56° C | 99% | 1065.4 hPa | 0 mm | - | 25 W/m² | - |
| 1777380160 | 21.11° C | 99% | 1065.3 hPa | 0 mm | - | 18 W/m² | - |
| 1777379856 | 21.11° C | 99% | 1065.6 hPa | 0 mm | - | 21 W/m² | - |
| 1777379551 | 21.11° C | 99% | 1065.4 hPa | 0 mm | - | 24 W/m² | - |
| 1777379247 | 21.11° C | 99% | 1065.4 hPa | 0 mm | - | 21 W/m² | - |
| 1777378942 | 21.11° C | 99% | 1065.1 hPa | 0 mm | - | 12 W/m² | - |
| 1777378638 | 21.11° C | 99% | 1065.1 hPa | 0 mm | - | 9 W/m² | - |
| 1777378335 | 21.11° C | 99% | 1065.1 hPa | 0 mm | - | 10 W/m² | - |
| 1777378034 | 21.11° C | 99% | 1065 hPa | 0 mm | - | 8 W/m² | - |
| 1777377728 | 21.11° C | 99% | 1065.1 hPa | 0 mm | - | 9 W/m² | - |
| 1777377423 | 21.11° C | 99% | 1065.1 hPa | 0 mm | - | 6 W/m² | - |
| 1777377120 | 21.11° C | 99% | 1065 hPa | 0 mm | - | 5 W/m² | - |
| 1777376817 | 21.11° C | 99% | 1064.9 hPa | 0 mm | - | 4 W/m² | - |
| 1777376514 | 21.11° C | 99% | 1064.7 hPa | 0 mm | - | 3 W/m² | - |
| 1777376210 | 21.11° C | 99% | 1064.6 hPa | 0 mm | - | 2 W/m² | - |
| 1777375905 | 21.11° C | 99% | 1064.7 hPa | 0 mm | - | 1 W/m² | - |
| 1777375605 | 21.11° C | 99% | 1064.6 hPa | 0 mm | - | 1 W/m² | - |
| 1777375300 | 21.11° C | 99% | 1064.4 hPa | 0 mm | - | 0 W/m² | - |
| 1777374997 | 21.11° C | 99% | 1064.6 hPa | 0 mm | - | 0 W/m² | - |
| 1777374693 | 21.11° C | 99% | 1064.6 hPa | 0 mm | - | 0 W/m² | - |
| 1777374389 | 21.11° C | 99% | 1064.4 hPa | 0 mm | - | 0 W/m² | - |
* Rain latest hour (hover to see other rain measurements)
** Current wind speed in m/s (hover to see current wind gust speed)